Time;durP1;ratioP1;P1;durP2;ratioP2;P2;SDS_P1;SDS_P2;PMS_P1;PMS_P2;Temp;Humidity;BMP_temperature;BMP_pressure;BME280_temperature;BME280_humidity;BME280_pressure;Samples;Min_cycle;Max_cycle;Signal;HPM_P1;HPM_P2
2022/05/24 00:00:37;;;;;;;6.50;3.35;;;;;;;18.91;45.04;98032.09;5069622;28;20045;-93
2022/05/24 00:03:03;;;;;;;4.68;3.30;;;;;;;18.99;43.91;98024.28;5070210;28;20063;-92
2022/05/24 00:05:31;;;;;;;6.72;3.30;;;;;;;18.97;43.77;98012.75;5070620;28;20043;-93
2022/05/24 00:07:57;;;;;;;7.90;4.50;;;;;;;19.18;43.88;98025.66;5071789;28;20106;-91
2022/05/24 00:10:26;;;;;;;5.40;3.40;;;;;;;19.17;43.45;98019.41;5071698;28;20104;-92
2022/05/24 00:12:53;;;;;;;6.78;3.60;;;;;;;19.16;43.75;98016.81;5071259;28;20078;-93
2022/05/24 00:15:24;;;;;;;6.10;3.20;;;;;;;19.21;43.98;98034.34;5071217;28;20052;-93
2022/05/24 00:17:53;;;;;;;6.70;3.92;;;;;;;19.16;43.54;98006.03;5070939;28;20124;-92
2022/05/24 00:20:20;;;;;;;5.00;3.35;;;;;;;19.15;44.07;98020.47;5071695;28;20037;-93
2022/05/24 00:22:46;;;;;;;6.13;3.15;;;;;;;19.15;43.66;98023.16;5070845;28;20033;-92
2022/05/24 00:25:12;;;;;;;7.50;3.10;;;;;;;19.08;43.64;98009.28;5070695;28;20098;-92
2022/05/24 00:27:38;;;;;;;4.35;3.17;;;;;;;19.07;44.00;98016.50;5071102;28;20037;-92
2022/05/24 00:30:07;;;;;;;5.50;3.22;;;;;;;19.05;43.80;98009.53;5070969;28;20037;-93
2022/05/24 00:32:32;;;;;;;5.32;3.40;;;;;;;19.09;43.81;98024.50;5070372;28;20037;-92
2022/05/24 00:34:58;;;;;;;5.03;3.28;;;;;;;19.09;44.52;98025.34;5070487;28;20083;-92
2022/05/24 00:37:26;;;;;;;5.90;3.05;;;;;;;19.06;44.42;98022.88;5067082;28;20506;-90
2022/05/24 00:39:52;;;;;;;6.30;3.35;;;;;;;19.00;44.37;98009.88;5070445;28;20033;-93
2022/05/24 00:42:21;;;;;;;7.03;3.22;;;;;;;19.04;44.56;98018.56;5070776;28;20039;-91
2022/05/24 00:44:51;;;;;;;5.57;3.33;;;;;;;19.03;44.10;98009.63;5070072;28;20045;-93
2022/05/24 00:47:27;;;;;;;9.20;3.72;;;;;;;19.05;44.13;98010.38;5070398;28;20033;-92
2022/05/24 00:49:56;;;;;;;6.30;3.20;;;;;;;19.07;44.00;98008.44;5057022;28;20036;-93
2022/05/24 00:52:28;;;;;;;6.85;3.50;;;;;;;19.09;44.11;98014.56;5057394;28;20041;-92
2022/05/24 00:54:54;;;;;;;8.23;3.85;;;;;;;19.05;44.30;98007.69;5057293;28;20044;-92
2022/05/24 00:57:28;;;;;;;7.88;3.13;;;;;;;19.11;44.18;98016.31;5056352;28;20040;-92
2022/05/24 01:00:01;;;;;;;6.30;3.25;;;;;;;18.95;44.66;97995.00;5054032;28;20568;-94
2022/05/24 01:02:28;;;;;;;7.45;2.90;;;;;;;18.95;44.57;97997.69;5054419;28;20045;-91
2022/05/24 01:04:54;;;;;;;6.45;3.25;;;;;;;18.81;45.23;97982.56;5056075;28;20720;-92
2022/05/24 01:07:20;;;;;;;4.97;3.38;;;;;;;18.90;44.73;97992.66;5056528;28;20120;-92
2022/05/24 01:09:50;;;;;;;7.70;3.75;;;;;;;18.80;44.88;97986.19;5056319;28;20056;-92
2022/05/24 01:12:25;;;;;;;7.25;3.38;;;;;;;18.83;44.87;97994.94;5051641;28;20040;-92
2022/05/24 01:14:54;;;;;;;5.72;3.17;;;;;;;18.80;45.29;97983.50;5052717;28;20044;-92
2022/05/24 01:17:20;;;;;;;6.77;3.53;;;;;;;18.89;45.11;98004.41;5056476;28;20037;-93
2022/05/24 01:19:49;;;;;;;6.07;3.20;;;;;;;18.84;45.20;97998.47;5056284;28;20124;-92
2022/05/24 01:22:37;;;;;;;5.75;3.22;;;;;;;18.82;45.39;98004.00;5056245;28;20495;-92
2022/05/24 01:25:08;;;;;;;7.10;3.13;;;;;;;18.83;45.37;98004.84;5045638;28;20045;-92
2022/05/24 01:27:36;;;;;;;5.95;3.63;;;;;;;18.73;45.59;97977.69;5054219;28;20068;-91
2022/05/24 01:30:03;;;;;;;5.80;3.00;;;;;;;18.77;45.53;97989.09;5055537;28;20041;-91
2022/05/24 01:38:33;;;;;;;6.75;3.33;;;;;;;18.77;45.00;97999.88;5153611;27;20135;-93
2022/05/24 01:41:00;;;;;;;5.55;3.00;;;;;;;18.80;45.42;98005.94;5153185;27;20067;-94
2022/05/24 01:43:28;;;;;;;5.90;3.50;;;;;;;18.68;45.42;97987.94;5153765;27;20087;-92
2022/05/24 01:45:57;;;;;;;4.88;3.15;;;;;;;18.55;45.66;97963.72;5153693;27;20039;-94
2022/05/24 01:48:28;;;;;;;5.00;3.53;;;;;;;18.67;45.46;97992.47;5153527;27;20035;-95
2022/05/24 01:50:56;;;;;;;6.10;3.45;;;;;;;18.57;46.04;97975.25;5151709;27;20046;-94
2022/05/24 01:53:31;;;;;;;5.43;3.15;;;;;;;18.61;46.61;97998.28;5153356;27;20031;-93
2022/05/24 01:56:00;;;;;;;6.80;3.28;;;;;;;18.43;46.49;97972.69;5153496;27;20117;-94
2022/05/24 01:58:30;;;;;;;4.82;3.20;;;;;;;18.54;46.91;97998.84;5153759;27;20046;-94
2022/05/24 02:01:01;;;;;;;7.82;3.40;;;;;;;18.50;47.47;98000.03;5153524;27;20042;-96
2022/05/24 02:03:27;;;;;;;5.40;3.30;;;;;;;18.43;47.96;97997.78;5154009;27;20035;-95
2022/05/24 02:05:56;;;;;;;6.07;3.35;;;;;;;18.39;48.22;97996.28;5153936;27;20057;-95
2022/05/24 02:08:22;;;;;;;4.95;3.30;;;;;;;18.26;48.37;97985.53;5152330;27;20084;-93
2022/05/24 02:10:53;;;;;;;6.97;3.35;;;;;;;18.29;48.92;97994.34;5153920;27;20043;-94
2022/05/24 02:13:25;;;;;;;6.65;3.65;;;;;;;18.22;49.21;97988.56;5151910;27;20061;-92
2022/05/24 02:15:55;;;;;;;9.88;3.70;;;;;;;18.08;49.62;97975.19;5153315;27;20078;-92
2022/05/24 02:18:23;;;;;;;4.97;3.40;;;;;;;18.02;49.76;97965.72;5153378;27;20050;-94
2022/05/24 02:20:49;;;;;;;5.57;3.40;;;;;;;18.11;50.12;97992.00;5152594;27;20045;-92
2022/05/24 02:23:17;;;;;;;8.20;4.10;;;;;;;18.01;50.77;97975.63;5153635;27;20563;-92
2022/05/24 02:25:46;;;;;;;8.02;3.40;;;;;;;18.03;50.59;97997.91;5151780;27;20046;-94
2022/05/24 02:28:14;;;;;;;10.00;3.78;;;;;;;17.88;51.06;97963.16;5153205;27;20061;-95
2022/05/24 02:30:44;;;;;;;7.20;3.60;;;;;;;17.96;51.31;97999.31;5148724;27;20493;-94
2022/05/24 02:33:10;;;;;;;9.70;3.70;;;;;;;17.85;51.55;97991.13;5152520;27;20092;-95
2022/05/24 02:35:36;;;;;;;6.72;3.60;;;;;;;17.75;51.81;97990.84;5153281;27;20137;-93
2022/05/24 02:38:02;;;;;;;6.43;3.55;;;;;;;17.75;51.92;97984.63;5152987;27;20068;-93
2022/05/24 02:43:29;;;;;;;6.63;3.55;;;;;;;17.76;52.02;97989.91;5112390;27;20930;-96
2022/05/24 02:45:55;;;;;;;5.93;3.83;;;;;;;17.72;52.20;97979.44;5113651;28;20051;-92
2022/05/24 02:48:21;;;;;;;6.47;3.92;;;;;;;17.82;52.51;97997.56;5112767;28;20507;-93
2022/05/24 02:50:46;;;;;;;7.00;3.80;;;;;;;17.84;52.27;97982.19;5113127;28;20139;-93
2022/05/24 02:53:12;;;;;;;8.25;4.00;;;;;;;17.81;52.67;97987.75;5113589;28;20040;-92
2022/05/24 02:55:38;;;;;;;7.25;3.47;;;;;;;17.65;53.09;97974.50;5110087;28;20075;-92
2022/05/24 02:58:04;;;;;;;6.30;3.65;;;;;;;17.77;52.99;97997.00;5112157;28;20062;-93
2022/05/24 03:00:32;;;;;;;7.13;3.50;;;;;;;17.66;53.35;97978.03;5114810;28;20557;-93
2022/05/24 03:02:58;;;;;;;4.90;3.38;;;;;;;17.59;53.54;97974.06;5109189;28;20039;-93
2022/05/24 03:05:25;;;;;;;7.55;3.67;;;;;;;17.64;53.70;97988.91;5111166;28;20048;-92
2022/05/24 03:10:50;;;;;;;8.32;3.65;;;;;;;17.58;54.15;97989.31;5105381;27;20380;-94
2022/05/24 03:16:12;;;;;;;8.52;4.65;;;;;;;17.57;54.54;97989.44;5104777;27;20399;-93
2022/05/24 03:18:38;;;;;;;6.15;3.63;;;;;;;17.61;54.08;97993.66;5072110;28;20045;-94
2022/05/24 03:21:04;;;;;;;8.35;4.00;;;;;;;17.58;54.76;98005.44;5072518;28;20045;-95
2022/05/24 03:23:29;;;;;;;7.95;4.13;;;;;;;17.43;54.79;97988.53;5071618;28;20120;-93
2022/05/24 03:25:55;;;;;;;6.85;3.95;;;;;;;17.44;55.25;98005.53;5071530;28;20065;-95
2022/05/24 03:28:21;;;;;;;7.05;4.15;;;;;;;17.46;55.30;98011.66;5071524;28;20091;-93
2022/05/24 03:30:47;;;;;;;10.02;4.18;;;;;;;17.41;55.48;98000.34;5071858;28;20041;-92
2022/05/24 03:33:15;;;;;;;7.30;3.88;;;;;;;17.42;55.86;98021.75;5070962;28;20041;-94
2022/05/24 03:35:41;;;;;;;7.85;4.00;;;;;;;17.34;56.08;98017.84;5071495;28;20090;-93
2022/05/24 03:38:07;;;;;;;8.38;4.20;;;;;;;17.29;56.34;98015.47;5070881;28;20037;-93
2022/05/24 03:40:33;;;;;;;9.15;4.70;;;;;;;17.31;56.52;98015.38;5071258;28;20051;-94
2022/05/24 03:43:01;;;;;;;9.38;4.05;;;;;;;17.36;56.51;98011.41;5071790;28;20033;-93
2022/05/24 03:45:28;;;;;;;7.07;3.87;;;;;;;17.32;57.03;98009.03;5070804;28;20029;-93
2022/05/24 03:47:54;;;;;;;6.47;3.67;;;;;;;17.31;56.78;98000.13;5070502;28;20086;-93
2022/05/24 03:50:23;;;;;;;6.70;4.28;;;;;;;17.41;57.18;98017.34;5071637;28;20127;-95
2022/05/24 03:52:48;;;;;;;;;;;;;;;17.43;57.22;98022.59;5071460;28;20127;-93
2022/05/24 03:55:23;;;;;;;7.25;4.20;;;;;;;17.41;57.37;98019.16;5071074;28;19967;-93
2022/05/24 03:58:02;;;;;;;6.00;4.22;;;;;;;17.38;57.74;98009.47;5071363;28;20507;-94
2022/05/24 04:00:31;;;;;;;8.82;4.20;;;;;;;17.38;58.12;98020.22;5070017;28;20064;-94
2022/05/24 04:02:58;;;;;;;6.95;4.28;;;;;;;17.31;58.08;98007.31;5071066;28;20467;-93
2022/05/24 04:05:31;;;;;;;7.30;4.05;;;;;;;17.44;58.13;98027.88;5071076;28;20036;-94
2022/05/24 04:07:59;;;;;;;7.15;4.20;;;;;;;17.42;58.72;98037.88;5071448;28;20469;-93
2022/05/24 04:10:24;;;;;;;9.52;4.70;;;;;;;17.29;59.07;98003.88;5071087;28;20037;-94
2022/05/24 04:12:51;;;;;;;6.70;4.47;;;;;;;17.39;59.29;98027.34;5072051;28;20040;-93
2022/05/24 04:15:18;;;;;;;9.63;4.43;;;;;;;17.37;59.47;98023.91;5070236;28;20051;-94
2022/05/24 04:17:46;;;;;;;11.73;4.72;;;;;;;17.44;59.79;98035.09;5070181;28;20041;-93
2022/05/24 04:20:13;;;;;;;7.25;4.15;;;;;;;17.44;60.10;98044.00;5070328;28;20120;-94
2022/05/24 04:22:43;;;;;;;14.30;4.63;;;;;;;17.38;60.91;98036.34;5070749;28;20049;-94
2022/05/24 04:25:10;;;;;;;7.07;4.50;;;;;;;17.28;60.99;98019.13;5070660;28;20045;-93
2022/05/24 04:27:36;;;;;;;10.38;4.05;;;;;;;17.36;61.18;98027.53;5056357;28;20068;-93
2022/05/24 04:30:03;;;;;;;6.45;4.53;;;;;;;17.38;62.19;98038.19;5055738;28;20119;-93
2022/05/24 04:32:29;;;;;;;9.32;5.38;;;;;;;17.32;62.21;98019.78;5056646;28;20033;-94
2022/05/24 04:34:55;;;;;;;10.00;5.20;;;;;;;17.51;61.41;98040.91;5056854;28;20037;-94
2022/05/24 04:37:20;;;;;;;7.70;4.80;;;;;;;17.65;61.00;98032.78;5056818;28;20385;-94
2022/05/24 04:39:51;;;;;;;10.02;4.95;;;;;;;17.77;61.07;98031.94;5056849;28;20044;-93
2022/05/24 04:42:21;;;;;;;8.98;5.35;;;;;;;17.95;60.30;98042.44;5055426;28;20033;-94
2022/05/24 04:44:50;;;;;;;9.30;5.13;;;;;;;18.02;59.70;98027.59;5056727;28;20553;-94
2022/05/24 04:47:17;;;;;;;9.90;5.40;;;;;;;18.23;59.43;98042.25;5056869;28;20051;-94
2022/05/24 04:49:46;;;;;;;7.40;4.70;;;;;;;18.21;59.27;98025.34;5057631;28;20037;-94
2022/05/24 04:52:13;;;;;;;10.15;5.32;;;;;;;18.19;59.71;98013.81;5058990;28;20045;-92
2022/05/24 04:54:42;;;;;;;11.45;4.70;;;;;;;18.39;59.96;98028.59;5056275;28;20069;-94
2022/05/24 04:57:10;;;;;;;;;;;;;;;18.53;59.16;98049.13;5057101;28;20580;-94
2022/05/24 04:59:37;;;;;;;9.55;5.82;;;;;;;18.54;59.08;98021.25;5056429;28;20457;-93
2022/05/24 05:02:05;;;;;;;9.65;5.38;;;;;;;18.84;58.33;98025.41;5056846;28;20430;-94
2022/05/24 05:04:32;;;;;;;9.02;5.45;;;;;;;19.25;57.94;98048.47;5055398;28;20041;-93
2022/05/24 05:06:58;;;;;;;8.05;5.63;;;;;;;19.23;57.38;98029.69;5057240;28;20106;-93
2022/05/24 05:09:25;;;;;;;11.25;6.07;;;;;;;19.56;57.06;98035.38;5057167;28;20509;-94
2022/05/24 05:11:51;;;;;;;10.05;5.22;;;;;;;19.64;56.78;98023.03;5056751;28;20033;-93
2022/05/24 05:14:26;;;;;;;10.52;5.70;;;;;;;19.83;56.44;98041.41;5057426;28;20489;-94
2022/05/24 05:16:52;;;;;;;10.10;5.60;;;;;;;20.02;56.09;98040.88;5057138;28;20564;-94
2022/05/24 05:19:18;;;;;;;8.10;4.82;;;;;;;20.23;54.91;98040.16;5055987;28;20053;-94
2022/05/24 05:21:46;;;;;;;9.98;5.57;;;;;;;20.10;54.57;98026.75;5056322;28;20375;-93
2022/05/24 05:24:15;;;;;;;8.70;5.40;;;;;;;19.84;55.44;98010.78;5056142;28;20037;-93
2022/05/24 05:26:41;;;;;;;10.82;5.20;;;;;;;20.21;55.21;98007.03;5055229;28;20048;-93
2022/05/24 05:29:08;;;;;;;10.70;5.60;;;;;;;20.66;53.85;98023.28;5054953;28;20390;-94
2022/05/24 05:31:39;;;;;;;10.65;5.88;;;;;;;20.75;53.23;98011.72;5054720;28;20033;-94
2022/05/24 05:34:04;;;;;;;12.80;5.82;;;;;;;20.89;52.97;98016.88;5054097;28;20041;-94
2022/05/24 05:36:34;;;;;;;13.45;5.53;;;;;;;20.96;51.81;97994.78;5054620;28;20041;-92
2022/05/24 05:39:00;;;;;;;8.90;5.68;;;;;;;20.92;52.59;98005.81;5054539;28;20487;-96
2022/05/24 05:41:29;;;;;;;10.20;5.47;;;;;;;20.96;53.06;98021.81;5054581;28;20091;-93
2022/05/24 05:43:55;;;;;;;;;;;;;;;21.12;53.07;98015.03;5054046;28;20049;-93
2022/05/24 05:46:21;;;;;;;9.95;5.45;;;;;;;20.45;52.78;98004.22;5054891;28;19940;-95
2022/05/24 05:48:48;;;;;;;14.60;5.70;;;;;;;20.62;52.58;98016.41;5054418;28;20039;-93
2022/05/24 05:51:16;;;;;;;12.30;5.72;;;;;;;20.65;53.46;97995.44;5055083;28;20076;-93
2022/05/24 05:53:43;;;;;;;9.68;5.18;;;;;;;20.76;52.73;98018.88;5056290;28;20048;-93
2022/05/24 05:56:14;;;;;;;8.05;5.32;;;;;;;20.96;52.19;98008.28;5054573;28;20519;-93
2022/05/24 05:58:40;;;;;;;15.52;5.80;;;;;;;21.18;51.05;98015.50;5053916;28;20098;-95
2022/05/24 06:01:05;;;;;;;9.05;5.03;;;;;;;21.27;50.43;98007.47;5054570;28;20526;-95
2022/05/24 06:03:31;;;;;;;10.75;5.63;;;;;;;21.30;50.44;98017.19;5054698;28;20037;-94
2022/05/24 06:06:00;;;;;;;8.75;5.15;;;;;;;21.24;50.30;98010.44;5055292;28;20068;-93
2022/05/24 06:08:27;;;;;;;11.25;5.20;;;;;;;21.35;50.67;98025.75;5055123;28;20120;-93
2022/05/24 06:10:53;;;;;;;9.77;5.00;;;;;;;21.47;49.49;98011.25;5054513;28;20063;-91
2022/05/24 06:13:19;;;;;;;13.13;5.05;;;;;;;21.44;49.04;98003.38;5054099;28;20394;-93
2022/05/24 06:15:47;;;;;;;11.52;5.43;;;;;;;21.80;49.57;98013.94;5053371;28;20052;-92
2022/05/24 06:18:13;;;;;;;11.43;5.35;;;;;;;21.81;47.68;97997.56;5054228;28;20045;-91
2022/05/24 06:20:39;;;;;;;9.35;5.30;;;;;;;22.05;47.16;98026.22;5054222;28;20037;-90
2022/05/24 06:23:07;;;;;;;8.55;5.00;;;;;;;22.05;47.14;98008.13;5054327;28;20043;-92
2022/05/24 06:25:33;;;;;;;8.27;5.13;;;;;;;22.15;45.86;98006.34;5053745;28;20052;-94
2022/05/24 06:28:00;;;;;;;10.38;5.05;;;;;;;22.15;46.17;98019.88;5055574;28;20037;-94
2022/05/24 06:30:26;;;;;;;8.90;5.20;;;;;;;21.87;46.60;98021.41;5055818;28;20533;-91
2022/05/24 06:32:52;;;;;;;12.02;5.32;;;;;;;21.53;47.43;98002.63;5054099;28;20037;-91
2022/05/24 06:35:19;;;;;;;13.88;5.40;;;;;;;21.92;47.46;98008.34;5052909;28;20049;-92
2022/05/24 06:37:48;;;;;;;8.43;5.05;;;;;;;22.09;45.99;98022.28;5055911;28;20063;-95
2022/05/24 06:40:18;;;;;;;8.35;5.70;;;;;;;22.05;46.17;98004.56;5055279;28;20045;-93
2022/05/24 06:42:44;;;;;;;10.05;5.25;;;;;;;22.07;46.20;97999.88;5055581;28;20043;-94
2022/05/24 06:45:11;;;;;;;9.98;5.25;;;;;;;22.19;44.42;98006.94;5054836;28;20044;-94
2022/05/24 06:47:38;;;;;;;13.60;4.93;;;;;;;22.31;44.61;98003.19;5055967;28;20182;-93
2022/05/24 06:50:05;;;;;;;13.25;5.57;;;;;;;22.62;45.00;98030.31;5056919;28;20055;-93
2022/05/24 06:52:31;;;;;;;11.23;5.03;;;;;;;22.45;43.71;98007.41;5056777;28;20071;-95
2022/05/24 06:54:57;;;;;;;10.80;4.90;;;;;;;22.63;44.06;98010.34;5057170;28;20041;-96
2022/05/24 06:57:25;;;;;;;7.40;4.40;;;;;;;22.64;44.06;98020.19;5050803;28;20041;-95
2022/05/24 07:02:59;;;;;;;12.38;5.38;;;;;;;22.77;43.67;98028.09;5164931;27;20377;-94
2022/05/24 07:05:25;;;;;;;13.57;4.97;;;;;;;22.97;43.73;98023.59;5138240;27;20047;-94
2022/05/24 07:07:51;;;;;;;9.60;4.90;;;;;;;22.98;43.48;98026.16;5138160;27;20043;-93
2022/05/24 07:10:17;;;;;;;11.98;4.95;;;;;;;23.10;43.07;98009.81;5136796;27;20123;-93
2022/05/24 07:12:45;;;;;;;11.52;4.75;;;;;;;23.08;42.25;97993.69;5140754;27;20046;-92
2022/05/24 07:15:11;;;;;;;7.77;4.60;;;;;;;23.48;42.17;98022.56;5136582;27;20114;-94
2022/05/24 07:17:37;;;;;;;11.02;5.75;;;;;;;23.35;41.31;98003.00;5139983;27;20064;-94
2022/05/24 07:20:06;;;;;;;9.15;5.00;;;;;;;23.74;41.72;98001.16;5139781;27;20035;-94
2022/05/24 07:22:31;;;;;;;;;;;;;;;23.95;40.65;98013.75;5139907;27;20051;-95
2022/05/24 07:24:57;;;;;;;8.45;4.82;;;;;;;23.89;40.82;98007.03;5144000;27;19919;-93
2022/05/24 07:27:23;;;;;;;8.32;4.43;;;;;;;23.64;40.27;98004.88;5134689;27;20492;-92
2022/05/24 07:29:49;;;;;;;12.77;4.75;;;;;;;23.36;40.54;97992.00;5141558;27;20050;-95
2022/05/24 07:32:15;;;;;;;12.00;5.38;;;;;;;23.84;39.54;97989.50;5139176;27;20047;-95
2022/05/24 07:34:41;;;;;;;11.55;4.40;;;;;;;24.08;39.79;98008.88;5136702;27;20046;-94
2022/05/24 07:37:13;;;;;;;9.52;4.75;;;;;;;24.33;38.45;98012.84;5141693;27;20042;-91
2022/05/24 07:39:39;;;;;;;12.77;4.50;;;;;;;24.33;37.93;97987.50;5142594;27;20392;-92
2022/05/24 07:48:09;;;;;;;9.43;4.97;;;;;;;24.26;37.49;97965.50;5147175;27;20384;-95
2022/05/24 07:50:35;;;;;;;8.00;4.38;;;;;;;24.65;36.64;97972.69;5112683;28;20054;-94
2022/05/24 07:53:01;;;;;;;6.70;4.13;;;;;;;25.21;36.43;97963.53;5112259;28;20069;-93
2022/05/24 07:55:27;;;;;;;10.00;4.05;;;;;;;25.14;34.94;97987.75;5112679;28;20036;-93
2022/05/24 07:57:53;;;;;;;10.63;4.20;;;;;;;25.13;34.97;97980.59;5112444;28;20093;-94
2022/05/24 08:00:20;;;;;;;8.27;4.15;;;;;;;25.58;34.72;97990.63;5111887;28;20044;-95
2022/05/24 08:02:48;;;;;;;9.20;4.10;;;;;;;25.80;31.96;97972.09;5111327;28;20059;-94
2022/05/24 08:05:16;;;;;;;;;;;;;;;26.02;33.63;97985.25;5112654;28;20044;-95
2022/05/24 08:07:42;;;;;;;8.07;4.20;;;;;;;25.67;33.08;97985.25;5112890;28;19966;-94
2022/05/24 08:10:08;;;;;;;8.32;4.10;;;;;;;25.64;33.74;97977.41;5112816;28;20362;-94
2022/05/24 08:12:34;;;;;;;11.10;4.35;;;;;;;25.68;33.82;97985.09;5112716;28;20050;-93
2022/05/24 08:15:01;;;;;;;8.57;4.22;;;;;;;25.53;33.46;97960.28;5113418;28;20489;-94
2022/05/24 08:17:27;;;;;;;6.10;3.95;;;;;;;26.00;34.04;97970.94;5116759;28;20032;-94
2022/05/24 08:19:53;;;;;;;8.63;4.00;;;;;;;26.21;32.57;97964.25;5114630;28;20111;-95
2022/05/24 08:22:21;;;;;;;8.32;4.20;;;;;;;26.09;31.61;97979.16;5114406;28;20527;-92
2022/05/24 08:24:47;;;;;;;8.60;3.63;;;;;;;26.07;31.59;97959.38;5114118;28;20089;-95
2022/05/24 08:27:14;;;;;;;6.85;3.78;;;;;;;26.61;31.07;97968.28;5114759;28;20139;-92
2022/05/24 08:29:40;;;;;;;7.65;3.67;;;;;;;26.51;30.12;97945.69;5113250;28;20104;-94
2022/05/24 08:32:06;;;;;;;6.90;3.40;;;;;;;26.68;30.21;97961.16;5113942;28;20493;-94
2022/05/24 08:34:32;;;;;;;10.35;3.90;;;;;;;26.91;29.96;97968.75;5113273;28;20048;-93
2022/05/24 08:36:58;;;;;;;7.25;3.58;;;;;;;26.54;29.29;97959.00;5112513;28;20040;-92
2022/05/24 08:39:26;;;;;;;10.57;3.85;;;;;;;26.32;28.57;97954.97;5113680;28;20489;-94
2022/05/24 08:42:04;;;;;;;10.52;3.50;;;;;;;26.55;29.83;97963.44;5113920;28;20128;-94
2022/05/24 08:51:16;;;;;;;18.20;4.35;;;;;;;27.33;27.06;97976.09;5152180;27;20376;-92
2022/05/24 08:53:45;;;;;;;13.85;3.90;;;;;;;27.38;28.20;97981.88;5108197;28;20040;-92
2022/05/24 08:56:16;;;;;;;7.32;3.88;;;;;;;27.02;28.90;97971.16;5103949;28;20123;-93
2022/05/24 08:58:46;;;;;;;8.48;3.72;;;;;;;26.18;29.78;97961.88;5107916;28;20368;-93
2022/05/24 09:01:15;;;;;;;8.10;3.65;;;;;;;26.69;30.72;97972.91;5110549;28;20033;-94
2022/05/24 09:03:41;;;;;;;8.73;4.20;;;;;;;26.43;30.62;97946.50;5103059;28;20058;-93
2022/05/24 09:06:14;;;;;;;10.43;4.22;;;;;;;26.62;31.03;97975.44;5107942;28;20473;-92
2022/05/24 09:08:57;;;;;;;7.53;3.72;;;;;;;26.91;30.47;97968.75;5111129;28;20048;-93
2022/05/24 09:11:32;;;;;;;5.82;3.80;;;;;;;27.00;31.21;97956.81;5110564;28;20051;-93
2022/05/24 09:14:11;;;;;;;10.05;4.30;;;;;;;27.49;29.89;97965.16;5101467;28;20524;-93
2022/05/24 09:16:47;;;;;;;11.50;3.88;;;;;;;27.81;29.13;97967.06;5108756;28;20044;-92
2022/05/24 09:19:19;;;;;;;9.52;4.32;;;;;;;27.37;29.52;97952.84;5102769;28;20042;-93
2022/05/24 09:21:51;;;;;;;5.95;3.60;;;;;;;27.32;27.68;97936.97;5114294;28;20047;-93
2022/05/24 09:24:26;;;;;;;7.50;4.30;;;;;;;27.21;29.11;97942.75;5101619;28;20070;-95
2022/05/24 09:27:12;;;;;;;7.37;3.70;;;;;;;27.60;28.44;97931.22;5109736;28;20044;-94
2022/05/24 09:29:53;;;;;;;9.95;4.20;;;;;;;28.15;29.18;97924.19;5103524;28;20109;-93
2022/05/24 09:32:22;;;;;;;9.73;3.88;;;;;;;27.83;28.23;97937.72;5106563;28;20096;-95
2022/05/24 09:35:01;;;;;;;8.65;4.00;;;;;;;28.09;27.93;97922.19;5107861;28;20416;-93
2022/05/24 09:37:29;;;;;;;7.65;4.30;;;;;;;28.53;27.38;97943.63;5110763;28;20398;-93
2022/05/24 09:40:00;;;;;;;11.15;3.90;;;;;;;28.69;27.30;97943.56;5114634;28;20111;-93
2022/05/24 09:42:30;;;;;;;7.07;3.97;;;;;;;28.85;27.00;97931.72;5110925;28;20044;-93
2022/05/24 09:45:01;;;;;;;12.13;3.97;;;;;;;27.71;27.84;97927.28;5100980;28;20123;-95
2022/05/24 09:47:31;;;;;;;8.13;3.97;;;;;;;28.21;27.84;97945.38;5107836;28;20064;-93
2022/05/24 09:50:21;;;;;;;9.40;4.18;;;;;;;27.96;28.32;97958.25;5114694;28;20051;-93
2022/05/24 09:53:08;;;;;;;7.30;3.90;;;;;;;28.06;26.93;97945.22;5112889;28;20581;-94
2022/05/24 09:55:39;;;;;;;9.13;4.30;;;;;;;28.33;27.46;97924.00;5106928;28;20051;-95
2022/05/24 09:58:18;;;;;;;7.80;4.50;;;;;;;28.81;27.56;97925.72;5099354;28;20181;-93
2022/05/24 10:00:48;;;;;;;7.03;4.35;;;;;;;28.88;27.21;97942.28;5095160;28;20046;-93
2022/05/24 10:03:14;;;;;;;10.77;4.43;;;;;;;29.01;26.82;97947.19;5094128;28;20126;-94
2022/05/24 10:05:40;;;;;;;10.05;4.68;;;;;;;29.36;27.27;97934.84;5090539;28;20064;-94
2022/05/24 10:08:18;;;;;;;8.85;3.78;;;;;;;29.48;26.75;97938.88;5095747;28;20028;-93
2022/05/24 10:10:48;;;;;;;11.07;4.07;;;;;;;29.54;27.10;97958.34;5098700;28;20040;-95
2022/05/24 10:13:24;;;;;;;8.88;4.05;;;;;;;28.93;27.55;97934.41;5089210;28;20120;-94
2022/05/24 10:16:05;;;;;;;8.57;4.07;;;;;;;28.60;28.02;97948.19;5095013;28;20131;-96
2022/05/24 10:18:41;;;;;;;8.98;4.20;;;;;;;28.38;29.06;97968.91;5089895;28;20059;-93
2022/05/24 10:21:16;;;;;;;10.93;4.60;;;;;;;27.99;28.99;97939.59;5090180;28;20066;-93
2022/05/24 10:23:53;;;;;;;10.55;4.35;;;;;;;28.12;29.10;97936.34;5084246;28;20044;-93
2022/05/24 10:26:39;;;;;;;10.90;4.60;;;;;;;28.45;29.21;97953.53;5094249;28;20036;-93
2022/05/24 10:29:14;;;;;;;8.70;4.50;;;;;;;28.30;29.32;97932.53;5093883;28;20040;-94
2022/05/24 10:31:50;;;;;;;10.35;4.63;;;;;;;28.23;30.06;97921.44;5089367;28;20081;-94
2022/05/24 10:40:44;;;;;;;8.05;3.90;;;;;;;28.65;30.25;97942.22;5111163;27;20359;-93
2022/05/24 10:43:23;;;;;;;8.98;4.03;;;;;;;28.78;30.29;97941.63;5082154;28;20076;-94
2022/05/24 10:46:00;;;;;;;9.60;4.30;;;;;;;28.63;30.20;97909.56;5087755;28;20040;-95
2022/05/24 10:48:37;;;;;;;9.85;4.70;;;;;;;28.91;29.61;97922.78;5080443;28;20068;-93
2022/05/24 10:51:13;;;;;;;8.32;4.15;;;;;;;29.21;29.84;97925.72;5073285;28;20075;-92
2022/05/24 10:53:55;;;;;;;11.45;4.40;;;;;;;28.85;30.89;97937.19;5084384;28;20379;-94
2022/05/24 10:56:35;;;;;;;11.80;4.75;;;;;;;28.03;30.31;97916.38;5082139;28;20092;-91
2022/05/24 10:59:19;;;;;;;9.32;4.45;;;;;;;28.45;31.02;97928.06;5084158;28;20044;-94
2022/05/24 11:01:53;;;;;;;11.50;4.45;;;;;;;28.53;31.76;97925.34;5080164;28;20041;-92
2022/05/24 11:04:25;;;;;;;12.23;4.40;;;;;;;28.21;31.64;97927.09;5080030;28;20044;-95
2022/05/24 11:06:58;;;;;;;7.25;4.20;;;;;;;28.45;31.53;97937.13;5078329;28;20076;-93
2022/05/24 11:09:26;;;;;;;11.38;4.30;;;;;;;27.76;32.21;97935.81;5073311;28;20041;-94
2022/05/24 11:12:00;;;;;;;9.87;4.47;;;;;;;27.51;32.74;97921.31;5078341;28;20044;-92
2022/05/24 11:14:42;;;;;;;10.70;4.15;;;;;;;27.37;33.14;97920.09;5080885;28;20044;-93
2022/05/24 11:17:10;;;;;;;8.68;4.20;;;;;;;27.60;32.96;97921.13;5077180;28;20056;-92
2022/05/24 11:19:39;;;;;;;9.77;4.63;;;;;;;27.81;33.39;97944.38;5085514;28;20059;-92
2022/05/24 11:22:18;;;;;;;6.97;3.63;;;;;;;27.90;33.19;97948.00;5078477;28;20499;-95
2022/05/24 11:24:49;;;;;;;11.90;4.07;;;;;;;27.72;33.50;97929.88;5084229;28;20049;-94
2022/05/24 11:27:26;;;;;;;12.18;4.22;;;;;;;27.65;33.43;97937.88;5080008;28;20104;-94
2022/05/24 11:29:56;;;;;;;14.07;4.35;;;;;;;28.00;32.75;97911.25;5095047;28;20043;-95
2022/05/24 11:32:33;;;;;;;9.10;4.13;;;;;;;28.02;31.80;97922.03;5077528;28;20059;-92
2022/05/24 11:35:04;;;;;;;11.57;4.50;;;;;;;28.12;32.36;97903.53;5081707;28;20044;-91
2022/05/24 11:37:32;;;;;;;8.90;3.75;;;;;;;28.39;32.74;97915.97;5084218;28;20052;-95
2022/05/24 11:40:38;;;;;;;7.82;4.13;;;;;;;28.70;32.42;97906.97;5081784;28;20037;-94
2022/05/24 11:43:08;;;;;;;11.65;3.80;;;;;;;29.34;31.41;97927.84;5070734;28;20048;-94
2022/05/24 11:45:54;;;;;;;7.15;4.03;;;;;;;28.98;31.42;97929.25;5076268;28;20045;-92
2022/05/24 11:48:20;;;;;;;9.65;4.03;;;;;;;28.30;31.86;97892.41;5073532;28;20041;-93
2022/05/24 11:50:48;;;;;;;9.52;4.30;;;;;;;28.07;32.24;97919.63;5066779;28;20124;-95
2022/05/24 11:53:35;;;;;;;7.68;4.25;;;;;;;27.51;33.06;97905.78;5063128;28;20502;-93
2022/05/24 11:56:19;;;;;;;6.57;4.00;;;;;;;28.26;33.50;97918.38;5072262;28;20135;-94
2022/05/24 11:58:53;;;;;;;10.98;4.80;;;;;;;27.76;33.17;97903.03;5064382;28;20049;-93
2022/05/24 12:01:49;;;;;;;10.95;4.75;;;;;;;27.91;33.31;97906.84;5062157;28;20049;-92
2022/05/24 12:10:50;;;;;;;11.40;4.55;;;;;;;29.85;27.72;97889.81;5091596;27;20371;-92
2022/05/24 12:13:30;;;;;;;16.63;5.10;;;;;;;29.91;26.88;97883.59;5091985;28;20048;-93
2022/05/24 12:15:58;;;;;;;12.63;4.47;;;;;;;29.84;27.68;97874.41;5090316;28;20497;-93
2022/05/24 12:18:38;;;;;;;11.57;4.57;;;;;;;30.06;28.43;97895.44;5092145;28;20040;-93
2022/05/24 12:21:04;;;;;;;12.07;4.40;;;;;;;30.20;26.47;97895.63;5091988;28;20032;-90
2022/05/24 12:23:36;;;;;;;12.95;4.40;;;;;;;30.21;27.48;97880.88;5091024;28;20410;-94
2022/05/24 12:26:05;;;;;;;15.55;4.40;;;;;;;30.21;27.80;97872.63;5091884;28;20040;-91